Time;durP1;ratioP1;P1;durP2;ratioP2;P2;SDS_P1;SDS_P2;PMS_P1;PMS_P2;Temp;Humidity;BMP_temperature;BMP_pressure;BME280_temperature;BME280_humidity;BME280_pressure;Samples;Min_cycle;Max_cycle;Signal;HPM_P1;HPM_P2
2023/12/20 00:01:19;;;;;;;4.55;1.50;;;;;;;;;;5059685;28;41735;-72
2023/12/20 00:03:48;;;;;;;3.80;1.52;;;;;;;;;;5055353;28;42214;-72
2023/12/20 00:06:16;;;;;;;4.38;1.52;;;;;;;;;;5065345;28;40728;-72
2023/12/20 00:08:44;;;;;;;3.03;1.35;;;;;;;;;;5061411;28;42342;-72
2023/12/20 00:11:12;;;;;;;4.18;1.58;;;;;;;;;;5063154;28;40697;-72
2023/12/20 00:13:40;;;;;;;2.88;1.40;;;;;;;;;;5065774;28;41503;-72
2023/12/20 00:16:08;;;;;;;2.38;1.00;;;;;;;;;;5047149;28;40597;-72
2023/12/20 00:18:36;;;;;;;4.50;1.33;;;;;;;;;;5055660;28;42227;-72
2023/12/20 00:21:06;;;;;;;3.33;1.42;;;;;;;;;;5058335;28;42502;-72
2023/12/20 00:23:34;;;;;;;2.65;1.25;;;;;;;;;;5064137;28;42925;-72
2023/12/20 00:26:02;;;;;;;2.70;1.35;;;;;;;;;;5059170;28;41575;-71
2023/12/20 00:28:30;;;;;;;2.58;1.30;;;;;;;;;;5068473;28;41383;-72
2023/12/20 00:30:58;;;;;;;3.28;1.20;;;;;;;;;;5068670;28;41177;-71
2023/12/20 00:33:26;;;;;;;3.50;1.20;;;;;;;;;;5068578;28;42682;-72
2023/12/20 00:35:54;;;;;;;4.38;1.35;;;;;;;;;;5067316;28;42350;-72
2023/12/20 00:38:23;;;;;;;2.17;1.00;;;;;;;;;;5059948;28;41281;-72
2023/12/20 00:40:51;;;;;;;2.67;1.20;;;;;;;;;;5066954;28;41740;-71
2023/12/20 00:43:19;;;;;;;2.55;1.20;;;;;;;;;;5066467;28;43085;-72
2023/12/20 00:45:47;;;;;;;1.95;1.17;;;;;;;;;;5080610;28;40995;-71
2023/12/20 00:48:15;;;;;;;4.25;1.50;;;;;;;;;;5042673;28;40424;-72
2023/12/20 00:50:43;;;;;;;4.25;1.30;;;;;;;;;;5064648;28;42136;-71
2023/12/20 00:53:11;;;;;;;1.48;0.80;;;;;;;;;;5064728;28;41711;-72
2023/12/20 00:55:40;;;;;;;3.80;1.20;;;;;;;;;;5062533;28;41860;-72
2023/12/20 00:58:08;;;;;;;3.63;1.38;;;;;;;;;;5056735;28;41918;-71
2023/12/20 01:00:36;;;;;;;2.13;1.20;;;;;;;;;;5058051;28;41602;-71
2023/12/20 01:03:04;;;;;;;2.70;1.00;;;;;;;;;;5062655;28;41840;-72
2023/12/20 01:05:32;;;;;;;4.63;1.30;;;;;;;;;;5064057;28;40484;-72
2023/12/20 01:08:02;;;;;;;2.05;0.93;;;;;;;;;;5062686;28;42213;-72
2023/12/20 01:10:30;;;;;;;3.22;1.13;;;;;;;;;;5065758;28;43121;-71
2023/12/20 01:13:00;;;;;;;2.92;1.13;;;;;;;;;;5042225;28;40678;-71
2023/12/20 01:15:28;;;;;;;2.83;1.00;;;;;;;;;;5064696;28;42215;-72
2023/12/20 01:17:56;;;;;;;3.88;0.90;;;;;;;;;;5076420;28;40708;-72
2023/12/20 01:20:25;;;;;;;4.95;1.33;;;;;;;;;;5057988;28;42091;-72
2023/12/20 01:22:53;;;;;;;3.00;0.90;;;;;;;;;;5059807;28;42954;-72
2023/12/20 01:25:21;;;;;;;2.88;1.15;;;;;;;;;;5059687;28;41885;-71
2023/12/20 01:27:49;;;;;;;3.13;1.10;;;;;;;;;;5057413;28;41391;-71
2023/12/20 01:30:19;;;;;;;4.03;1.02;;;;;;;;;;5053254;28;41702;-71
2023/12/20 01:32:47;;;;;;;3.63;1.23;;;;;;;;;;5063214;28;42293;-71
2023/12/20 01:35:14;;;;;;;2.35;1.08;;;;;;;;;;5056231;28;42290;-71
2023/12/20 01:37:43;;;;;;;3.67;1.33;;;;;;;;;;5051080;28;41801;-71
2023/12/20 01:40:11;;;;;;;4.15;1.35;;;;;;;;;;5054424;28;41670;-72
2023/12/20 01:42:42;;;;;;;4.25;1.20;;;;;;;;;;5080596;28;42713;-72
2023/12/20 01:45:10;;;;;;;2.22;1.17;;;;;;;;;;5072441;28;41283;-72
2023/12/20 01:47:40;;;;;;;6.25;1.30;;;;;;;;;;5083255;28;41958;-72
2023/12/20 01:50:09;;;;;;;3.47;1.00;;;;;;;;;;5056799;28;40317;-71
2023/12/20 01:52:37;;;;;;;4.30;1.42;;;;;;;;;;5064782;28;41075;-72
2023/12/20 01:55:12;;;;;;;2.20;1.05;;;;;;;;;;5061599;28;41096;-72
2023/12/20 01:57:40;;;;;;;2.00;0.90;;;;;;;;;;5047943;28;41881;-72
2023/12/20 02:00:09;;;;;;;4.05;1.05;;;;;;;;;;5049990;28;42334;-72
2023/12/20 02:02:37;;;;;;;4.10;1.52;;;;;;;;;;5058575;28;42096;-72
2023/12/20 02:05:07;;;;;;;4.15;1.50;;;;;;;;;;5063493;28;41261;-72
2023/12/20 02:07:35;;;;;;;5.55;1.40;;;;;;;;;;5064119;28;41631;-71
2023/12/20 02:10:04;;;;;;;4.18;1.60;;;;;;;;;;5063888;28;41612;-72
2023/12/20 02:12:32;;;;;;;4.63;1.50;;;;;;;;;;5065600;28;40990;-72
2023/12/20 02:15:01;;;;;;;3.35;1.35;;;;;;;;;;5064620;28;20311;-72
2023/12/20 02:17:29;;;;;;;3.45;1.15;;;;;;;;;;5066098;28;42294;-72
2023/12/20 02:19:57;;;;;;;4.22;1.48;;;;;;;;;;5061156;28;40796;-72
2023/12/20 02:22:26;;;;;;;4.13;1.30;;;;;;;;;;5075507;28;41700;-71
2023/12/20 02:24:54;;;;;;;5.60;1.20;;;;;;;;;;5066321;28;41594;-72
2023/12/20 02:27:22;;;;;;;10.15;2.20;;;;;;;;;;5069377;28;41500;-71
2023/12/20 02:29:50;;;;;;;2.85;1.10;;;;;;;;;;5066797;28;42438;-72
2023/12/20 02:32:18;;;;;;;4.50;1.27;;;;;;;;;;5069832;28;42358;-71
2023/12/20 02:34:47;;;;;;;3.50;1.10;;;;;;;;;;5065306;28;42457;-71
2023/12/20 02:37:15;;;;;;;3.60;1.48;;;;;;;;;;5075645;28;43309;-72
2023/12/20 02:39:45;;;;;;;3.55;1.13;;;;;;;;;;5066428;28;40028;-71
2023/12/20 02:42:13;;;;;;;3.03;1.00;;;;;;;;;;5065252;28;42006;-71
2023/12/20 02:44:41;;;;;;;5.13;1.65;;;;;;;;;;5068026;28;42271;-72
2023/12/20 02:47:09;;;;;;;3.42;1.10;;;;;;;;;;5083757;28;41508;-71
2023/12/20 02:49:37;;;;;;;5.05;1.40;;;;;;;;;;5077890;28;43146;-71
2023/12/20 02:52:05;;;;;;;4.47;1.55;;;;;;;;;;5073671;28;41950;-71
2023/12/20 02:54:33;;;;;;;4.82;1.08;;;;;;;;;;5061318;28;41677;-71
2023/12/20 02:57:03;;;;;;;4.22;1.35;;;;;;;;;;5045095;28;40870;-72
2023/12/20 02:59:31;;;;;;;5.00;1.77;;;;;;;;;;5063708;28;40738;-71
2023/12/20 03:01:59;;;;;;;4.93;1.40;;;;;;;;;;5062029;28;42590;-71
2023/12/20 03:04:27;;;;;;;3.58;1.20;;;;;;;;;;5062683;28;43896;-72
2023/12/20 03:06:55;;;;;;;4.35;1.48;;;;;;;;;;5057335;28;39600;-71
2023/12/20 03:09:23;;;;;;;3.83;1.40;;;;;;;;;;5067289;28;41772;-71
2023/12/20 03:11:51;;;;;;;4.57;1.00;;;;;;;;;;5067002;28;41395;-72
2023/12/20 03:14:20;;;;;;;5.95;1.38;;;;;;;;;;5068229;28;41429;-71
2023/12/20 03:16:48;;;;;;;5.35;1.55;;;;;;;;;;5067110;28;42045;-71
2023/12/20 03:19:16;;;;;;;3.30;0.93;;;;;;;;;;5062877;28;41946;-72
2023/12/20 03:21:44;;;;;;;6.60;1.25;;;;;;;;;;5067075;28;41602;-71
2023/12/20 03:24:12;;;;;;;4.97;1.63;;;;;;;;;;5064899;28;42180;-71
2023/12/20 03:26:40;;;;;;;4.20;1.38;;;;;;;;;;5068089;28;41545;-72
2023/12/20 03:29:08;;;;;;;5.18;1.40;;;;;;;;;;5076962;28;42198;-71
2023/12/20 03:31:37;;;;;;;5.93;1.58;;;;;;;;;;5074862;28;42540;-71
2023/12/20 03:34:05;;;;;;;8.13;1.95;;;;;;;;;;5064623;28;41844;-71
2023/12/20 03:36:33;;;;;;;5.20;1.70;;;;;;;;;;5059395;28;42829;-72
2023/12/20 03:39:01;;;;;;;3.33;1.10;;;;;;;;;;5053081;28;41355;-72
2023/12/20 03:41:29;;;;;;;5.70;1.40;;;;;;;;;;5056131;28;41678;-71
2023/12/20 03:43:57;;;;;;;5.35;1.92;;;;;;;;;;5068872;28;41555;-72
2023/12/20 03:46:25;;;;;;;6.07;1.75;;;;;;;;;;5068935;28;42106;-71
2023/12/20 03:48:55;;;;;;;5.38;1.60;;;;;;;;;;5068416;28;42054;-71
2023/12/20 03:51:23;;;;;;;5.47;1.48;;;;;;;;;;5068601;28;41226;-71
2023/12/20 03:53:51;;;;;;;6.97;1.42;;;;;;;;;;5067084;28;42543;-72
2023/12/20 03:56:19;;;;;;;3.00;1.20;;;;;;;;;;5065405;28;41593;-72
2023/12/20 03:58:47;;;;;;;7.82;1.70;;;;;;;;;;5067379;28;41157;-72
2023/12/20 04:01:15;;;;;;;3.60;1.27;;;;;;;;;;5056983;28;41416;-71
2023/12/20 04:03:43;;;;;;;5.88;1.65;;;;;;;;;;5066243;28;41527;-71
2023/12/20 04:06:12;;;;;;;4.15;1.38;;;;;;;;;;5059522;28;41036;-72
2023/12/20 04:08:40;;;;;;;5.03;1.30;;;;;;;;;;5065416;28;41288;-71
2023/12/20 04:11:08;;;;;;;5.90;1.60;;;;;;;;;;5054920;28;40946;-71
2023/12/20 04:13:39;;;;;;;3.33;1.27;;;;;;;;;;5064708;28;43165;-71
2023/12/20 04:16:07;;;;;;;3.70;1.25;;;;;;;;;;5062746;28;41559;-70
2023/12/20 04:18:34;;;;;;;5.47;1.30;;;;;;;;;;5062610;28;42062;-72
2023/12/20 04:21:03;;;;;;;4.75;1.27;;;;;;;;;;5065883;28;42368;-71
2023/12/20 04:23:32;;;;;;;2.90;1.10;;;;;;;;;;5064262;28;41749;-72
2023/12/20 04:26:00;;;;;;;5.18;1.52;;;;;;;;;;5064613;28;42311;-71
2023/12/20 04:28:30;;;;;;;3.97;1.50;;;;;;;;;;5069966;28;42443;-71
2023/12/20 04:30:58;;;;;;;5.20;1.58;;;;;;;;;;5058638;28;30421;-71
2023/12/20 04:33:26;;;;;;;5.05;1.38;;;;;;;;;;5067019;28;41847;-71
2023/12/20 04:35:54;;;;;;;5.75;1.17;;;;;;;;;;5044352;28;40646;-71
2023/12/20 04:38:22;;;;;;;5.15;1.17;;;;;;;;;;5067427;28;41428;-71
2023/12/20 04:40:51;;;;;;;6.45;1.90;;;;;;;;;;5082196;28;41407;-71
2023/12/20 04:43:19;;;;;;;4.95;1.45;;;;;;;;;;5066600;28;42618;-72
2023/12/20 04:45:48;;;;;;;5.55;1.60;;;;;;;;;;5080763;28;41271;-72
2023/12/20 04:48:16;;;;;;;5.25;1.52;;;;;;;;;;5077461;28;41186;-71
2023/12/20 04:50:44;;;;;;;2.42;0.95;;;;;;;;;;5080725;28;43406;-71
2023/12/20 04:53:12;;;;;;;6.30;1.65;;;;;;;;;;5066634;28;41487;-71
2023/12/20 04:55:40;;;;;;;3.47;1.40;;;;;;;;;;5076224;28;42060;-72
2023/12/20 04:58:09;;;;;;;5.05;1.90;;;;;;;;;;5064850;28;41932;-71
2023/12/20 05:00:37;;;;;;;4.72;1.60;;;;;;;;;;5046692;28;40113;-71
2023/12/20 05:03:05;;;;;;;4.90;1.65;;;;;;;;;;5069807;28;42197;-72
2023/12/20 05:05:34;;;;;;;6.50;2.03;;;;;;;;;;5065580;28;41859;-72
2023/12/20 05:08:02;;;;;;;4.18;1.40;;;;;;;;;;5072913;28;42400;-71
2023/12/20 05:10:30;;;;;;;5.90;1.77;;;;;;;;;;5070285;28;42139;-71
2023/12/20 05:12:58;;;;;;;4.57;1.63;;;;;;;;;;5066124;28;41406;-71
2023/12/20 05:15:27;;;;;;;6.47;1.60;;;;;;;;;;5066485;28;43151;-72
2023/12/20 05:17:55;;;;;;;4.05;1.50;;;;;;;;;;5061414;28;41248;-71
2023/12/20 05:20:23;;;;;;;6.15;1.92;;;;;;;;;;5067467;28;42564;-71
2023/12/20 05:22:51;;;;;;;8.30;1.52;;;;;;;;;;5056153;28;41842;-71
2023/12/20 05:25:19;;;;;;;6.25;1.90;;;;;;;;;;5055233;28;40797;-71
2023/12/20 05:27:47;;;;;;;8.35;2.38;;;;;;;;;;5071154;28;40967;-72
2023/12/20 05:30:16;;;;;;;6.07;1.55;;;;;;;;;;5067900;28;42909;-71
2023/12/20 05:32:45;;;;;;;4.95;1.42;;;;;;;;;;5078362;28;42353;-72
2023/12/20 05:35:13;;;;;;;5.85;1.98;;;;;;;;;;5067383;28;41464;-72
2023/12/20 05:37:41;;;;;;;4.93;1.50;;;;;;;;;;5059614;28;42258;-71
2023/12/20 05:40:10;;;;;;;5.15;1.55;;;;;;;;;;5056922;28;42305;-72
2023/12/20 05:42:38;;;;;;;2.97;1.52;;;;;;;;;;5066207;28;41639;-71
2023/12/20 05:45:06;;;;;;;4.47;1.40;;;;;;;;;;5066123;28;41213;-71
2023/12/20 05:47:34;;;;;;;5.70;1.58;;;;;;;;;;5065712;28;40548;-71
2023/12/20 05:50:04;;;;;;;5.28;1.58;;;;;;;;;;5065599;28;41977;-71
2023/12/20 05:52:32;;;;;;;4.25;1.50;;;;;;;;;;5066323;28;41223;-72
2023/12/20 05:55:01;;;;;;;6.43;1.75;;;;;;;;;;5063863;28;42645;-72
2023/12/20 05:57:29;;;;;;;5.18;1.38;;;;;;;;;;5067795;28;42186;-71
2023/12/20 05:59:57;;;;;;;7.82;2.08;;;;;;;;;;5053681;28;41878;-72
2023/12/20 06:02:25;;;;;;;3.92;1.20;;;;;;;;;;5064382;28;41351;-71
2023/12/20 06:04:53;;;;;;;9.40;2.10;;;;;;;;;;5065423;28;41317;-71
2023/12/20 06:07:22;;;;;;;6.57;2.08;;;;;;;;;;5055197;28;41573;-72
2023/12/20 06:09:50;;;;;;;5.28;1.45;;;;;;;;;;5060544;28;42167;-72
2023/12/20 06:12:18;;;;;;;5.35;1.70;;;;;;;;;;5065732;28;41342;-71
2023/12/20 06:14:46;;;;;;;3.60;1.35;;;;;;;;;;5063306;28;41448;-72
2023/12/20 06:17:15;;;;;;;5.25;1.50;;;;;;;;;;5063612;28;42215;-71
2023/12/20 06:19:44;;;;;;;7.20;2.15;;;;;;;;;;5065238;28;41829;-71
2023/12/20 06:22:12;;;;;;;8.30;1.48;;;;;;;;;;5064570;28;41698;-71
2023/12/20 06:24:42;;;;;;;7.05;1.90;;;;;;;;;;5062629;28;42343;-71
2023/12/20 06:27:10;;;;;;;6.15;2.10;;;;;;;;;;5062676;28;42316;-71
2023/12/20 06:29:38;;;;;;;6.10;1.52;;;;;;;;;;5045492;28;40884;-71
2023/12/20 06:32:06;;;;;;;6.38;1.58;;;;;;;;;;5062222;28;40986;-72
2023/12/20 06:34:34;;;;;;;8.55;1.95;;;;;;;;;;5071240;28;41692;-72
2023/12/20 06:37:02;;;;;;;8.30;2.47;;;;;;;;;;5056701;28;41728;-72
2023/12/20 06:39:30;;;;;;;7.15;2.25;;;;;;;;;;5058310;28;40645;-71
2023/12/20 06:41:59;;;;;;;9.18;2.10;;;;;;;;;;5063866;28;43089;-71
2023/12/20 06:44:27;;;;;;;3.50;1.27;;;;;;;;;;5055987;28;41019;-71
2023/12/20 06:46:55;;;;;;;3.40;1.30;;;;;;;;;;5047192;28;40265;-71
2023/12/20 06:49:23;;;;;;;4.93;1.73;;;;;;;;;;5063655;28;41857;-71
2023/12/20 06:51:51;;;;;;;6.13;1.50;;;;;;;;;;5065531;28;41374;-71
2023/12/20 06:54:19;;;;;;;6.28;1.83;;;;;;;;;;5063097;28;41556;-71
2023/12/20 06:56:47;;;;;;;5.10;1.40;;;;;;;;;;5045023;28;41689;-71
2023/12/20 06:59:16;;;;;;;4.90;1.55;;;;;;;;;;5063120;28;42243;-71
2023/12/20 07:01:48;;;;;;;5.22;1.58;;;;;;;;;;5061859;28;39434;-72
2023/12/20 07:04:16;;;;;;;5.72;1.95;;;;;;;;;;5067824;28;41605;-71
2023/12/20 07:06:44;;;;;;;9.48;2.30;;;;;;;;;;5063181;28;41602;-71
2023/12/20 07:09:13;;;;;;;6.68;1.85;;;;;;;;;;5054686;28;41628;-71
2023/12/20 07:11:41;;;;;;;6.85;1.95;;;;;;;;;;5057062;28;41331;-71
2023/12/20 07:14:08;;;;;;;5.22;1.67;;;;;;;;;;5067147;28;42395;-72
2023/12/20 07:16:37;;;;;;;5.70;1.40;;;;;;;;;;5066186;28;42098;-72
2023/12/20 07:19:05;;;;;;;5.88;1.65;;;;;;;;;;5056963;28;41822;-71
2023/12/20 07:21:33;;;;;;;8.07;2.17;;;;;;;;;;5067944;28;41023;-72
2023/12/20 07:24:01;;;;;;;9.90;2.15;;;;;;;;;;5051059;28;42012;-72
2023/12/20 07:26:29;;;;;;;10.00;2.22;;;;;;;;;;5076232;28;41813;-72
2023/12/20 07:28:58;;;;;;;4.50;1.38;;;;;;;;;;5061306;28;41593;-71
2023/12/20 07:31:26;;;;;;;5.82;1.67;;;;;;;;;;5066565;28;41723;-71
2023/12/20 07:33:55;;;;;;;7.00;1.85;;;;;;;;;;5065147;28;41652;-72
2023/12/20 07:36:24;;;;;;;8.13;2.25;;;;;;;;;;5068539;28;42116;-71
2023/12/20 07:38:51;;;;;;;7.03;2.05;;;;;;;;;;5054806;28;41732;-71
2023/12/20 07:41:21;;;;;;;7.28;1.85;;;;;;;;;;5063540;28;42413;-71
2023/12/20 07:43:49;;;;;;;4.97;1.58;;;;;;;;;;5060112;28;41271;-71
2023/12/20 07:46:18;;;;;;;8.70;2.10;;;;;;;;;;5065372;28;41865;-71
2023/12/20 07:48:46;;;;;;;5.40;1.83;;;;;;;;;;5067543;28;43151;-71
2023/12/20 07:51:16;;;;;;;10.70;2.20;;;;;;;;;;5063871;28;42337;-71
2023/12/20 07:53:44;;;;;;;4.05;1.60;;;;;;;;;;5064736;28;42585;-71
2023/12/20 07:56:15;;;;;;;8.93;1.85;;;;;;;;;;5065927;28;41984;-71
2023/12/20 07:58:43;;;;;;;5.07;1.45;;;;;;;;;;5063516;28;41995;-71
2023/12/20 08:01:20;;;;;;;8.25;2.15;;;;;;;;;;5065109;28;41589;-72
2023/12/20 08:03:49;;;;;;;5.72;2.17;;;;;;;;;;5064634;28;42404;-71
2023/12/20 08:06:18;;;;;;;5.00;1.33;;;;;;;;;;5051178;28;41770;-72
2023/12/20 08:08:46;;;;;;;8.15;2.00;;;;;;;;;;5057700;28;42177;-71
2023/12/20 08:11:25;;;;;;;5.13;1.85;;;;;;;;;;5056395;28;40736;-71
2023/12/20 08:13:53;;;;;;;6.05;1.63;;;;;;;;;;5055214;28;42108;-72
2023/12/20 08:16:21;;;;;;;7.38;2.00;;;;;;;;;;5063376;28;41940;-72
2023/12/20 08:18:49;;;;;;;4.50;1.40;;;;;;;;;;5054947;28;42178;-71
2023/12/20 08:21:20;;;;;;;7.32;2.05;;;;;;;;;;5063849;28;40888;-71
2023/12/20 08:23:49;;;;;;;5.30;1.45;;;;;;;;;;5059134;28;41159;-71
2023/12/20 08:26:20;;;;;;;7.75;1.95;;;;;;;;;;5055573;28;41368;-71
2023/12/20 08:28:47;;;;;;;4.28;1.63;;;;;;;;;;5064755;28;41495;-72
2023/12/20 08:31:16;;;;;;;8.70;2.17;;;;;;;;;;5066213;28;43070;-70
2023/12/20 08:33:44;;;;;;;11.32;2.95;;;;;;;;;;5067002;28;41879;-70
2023/12/20 08:36:12;;;;;;;9.48;2.05;;;;;;;;;;5061261;28;42269;-70
2023/12/20 08:38:41;;;;;;;11.93;2.50;;;;;;;;;;5068525;28;41670;-75
2023/12/20 08:41:09;;;;;;;10.80;2.72;;;;;;;;;;5057564;28;42698;-69
2023/12/20 08:43:39;;;;;;;9.57;3.00;;;;;;;;;;5058461;28;41959;-69
2023/12/20 08:46:09;;;;;;;9.82;2.25;;;;;;;;;;5064535;28;42224;-69
2023/12/20 08:48:37;;;;;;;9.85;3.00;;;;;;;;;;5064687;28;42361;-69
2023/12/20 08:51:07;;;;;;;10.35;2.85;;;;;;;;;;5060429;28;41407;-69
2023/12/20 08:53:35;;;;;;;10.88;3.00;;;;;;;;;;5053021;28;42172;-68
2023/12/20 08:56:04;;;;;;;9.93;2.55;;;;;;;;;;5051511;28;42173;-69
2023/12/20 08:58:33;;;;;;;9.23;2.15;;;;;;;;;;5059065;28;41975;-70
2023/12/20 09:01:01;;;;;;;18.70;2.60;;;;;;;;;;5058548;28;41325;-70
2023/12/20 09:03:29;;;;;;;7.15;2.75;;;;;;;;;;5055829;28;42817;-69
2023/12/20 09:05:57;;;;;;;9.27;2.33;;;;;;;;;;5059990;28;41340;-69
2023/12/20 09:08:25;;;;;;;11.55;3.03;;;;;;;;;;5060676;28;42056;-69
2023/12/20 09:10:53;;;;;;;11.95;2.83;;;;;;;;;;5064150;28;42082;-73
2023/12/20 09:13:27;;;;;;;13.57;3.03;;;;;;;;;;5064826;28;41480;-70
2023/12/20 09:15:56;;;;;;;12.75;3.42;;;;;;;;;;5051540;28;42547;-69
2023/12/20 09:18:24;;;;;;;11.60;2.75;;;;;;;;;;5059456;28;42318;-69
2023/12/20 09:20:52;;;;;;;18.23;2.70;;;;;;;;;;5061346;28;42538;-69
2023/12/20 09:23:20;;;;;;;9.07;2.92;;;;;;;;;;5060936;28;42081;-69
2023/12/20 09:25:48;;;;;;;16.90;2.50;;;;;;;;;;5043826;28;40209;-69
2023/12/20 09:28:16;;;;;;;12.00;2.70;;;;;;;;;;5059607;28;42151;-69
2023/12/20 09:30:46;;;;;;;11.93;2.00;;;;;;;;;;5055826;28;42207;-69
2023/12/20 09:33:14;;;;;;;11.15;3.47;;;;;;;;;;5060578;28;40921;-69
2023/12/20 09:35:42;;;;;;;8.88;2.78;;;;;;;;;;5063100;28;39847;-69
2023/12/20 09:38:10;;;;;;;8.25;2.22;;;;;;;;;;5063107;28;42952;-69
2023/12/20 09:40:38;;;;;;;12.77;3.20;;;;;;;;;;5048061;28;42014;-69
2023/12/20 09:43:09;;;;;;;12.93;2.35;;;;;;;;;;5052737;28;42885;-70
2023/12/20 09:45:38;;;;;;;12.65;3.10;;;;;;;;;;5060526;28;40522;-69
2023/12/20 09:48:07;;;;;;;20.83;3.65;;;;;;;;;;5062945;28;42203;-69
2023/12/20 09:50:35;;;;;;;10.43;3.08;;;;;;;;;;5048479;28;43159;-69
2023/12/20 09:53:04;;;;;;;11.35;2.40;;;;;;;;;;5055084;28;41242;-70
2023/12/20 09:55:33;;;;;;;7.70;2.45;;;;;;;;;;5062933;28;41752;-70
2023/12/20 09:58:01;;;;;;;10.60;2.95;;;;;;;;;;5060976;28;41455;-70
2023/12/20 10:00:29;;;;;;;11.88;3.22;;;;;;;;;;5064660;28;41776;-70
2023/12/20 10:02:57;;;;;;;15.18;2.88;;;;;;;;;;5063234;28;41642;-69
2023/12/20 10:05:28;;;;;;;13.90;2.90;;;;;;;;;;5051906;28;42922;-69
2023/12/20 10:07:56;;;;;;;13.43;3.03;;;;;;;;;;5059804;28;40376;-68
2023/12/20 10:10:24;;;;;;;12.57;2.88;;;;;;;;;;5059989;28;41993;-69
2023/12/20 10:13:09;;;;;;;10.90;2.75;;;;;;;;;;5053125;28;41327;-71
2023/12/20 10:15:37;;;;;;;5.85;2.63;;;;;;;;;;5056350;28;41188;-71
2023/12/20 10:18:05;;;;;;;6.32;2.22;;;;;;;;;;5057977;28;41744;-70
2023/12/20 10:20:35;;;;;;;11.73;3.33;;;;;;;;;;5054820;28;40940;-70
2023/12/20 10:23:03;;;;;;;11.13;2.78;;;;;;;;;;5059255;28;40554;-71
2023/12/20 10:25:31;;;;;;;12.23;2.92;;;;;;;;;;5061022;28;41581;-71
2023/12/20 10:28:09;;;;;;;14.88;3.00;;;;;;;;;;5060779;28;41682;-70
2023/12/20 10:30:37;;;;;;;12.32;2.72;;;;;;;;;;5060462;28;42666;-69
2023/12/20 10:33:06;;;;;;;7.55;2.70;;;;;;;;;;5063979;28;42061;-70
2023/12/20 10:35:35;;;;;;;13.70;3.00;;;;;;;;;;5057743;28;41457;-69
2023/12/20 10:38:04;;;;;;;13.95;2.85;;;;;;;;;;5045719;28;42196;-69
2023/12/20 10:40:33;;;;;;;10.00;2.97;;;;;;;;;;5059944;28;41574;-69
2023/12/20 10:43:01;;;;;;;12.48;2.78;;;;;;;;;;5062725;28;40832;-70
2023/12/20 10:45:29;;;;;;;13.43;3.03;;;;;;;;;;5059241;28;41871;-69
2023/12/20 10:47:57;;;;;;;10.55;3.42;;;;;;;;;;5063830;28;41515;-69
2023/12/20 10:50:25;;;;;;;13.68;2.60;;;;;;;;;;5055212;28;41955;-71
2023/12/20 10:52:55;;;;;;;11.23;2.40;;;;;;;;;;5059750;28;41074;-69
2023/12/20 10:55:23;;;;;;;11.10;2.75;;;;;;;;;;5053393;28;41562;-69
2023/12/20 10:57:52;;;;;;;8.90;2.60;;;;;;;;;;5061395;28;41496;-69
2023/12/20 11:00:20;;;;;;;13.95;3.30;;;;;;;;;;5066959;28;40913;-70
2023/12/20 11:02:49;;;;;;;10.82;2.50;;;;;;;;;;5062138;28;41557;-69
2023/12/20 11:05:20;;;;;;;8.75;2.47;;;;;;;;;;5066013;28;40561;-69
2023/12/20 11:07:49;;;;;;;8.32;2.50;;;;;;;;;;5064053;28;41641;-68
2023/12/20 11:10:20;;;;;;;9.05;2.90;;;;;;;;;;5067204;28;43020;-68
2023/12/20 11:12:48;;;;;;;10.73;2.42;;;;;;;;;;5054085;28;42307;-69
2023/12/20 11:15:16;;;;;;;7.63;2.75;;;;;;;;;;5048404;28;40526;-70
2023/12/20 11:17:45;;;;;;;13.52;2.83;;;;;;;;;;5049449;28;42071;-71
2023/12/20 11:20:18;;;;;;;11.40;2.70;;;;;;;;;;5060181;28;42428;-70
2023/12/20 11:22:53;;;;;;;9.40;2.70;;;;;;;;;;5065254;28;41389;-70
2023/12/20 11:25:24;;;;;;;12.13;3.33;;;;;;;;;;5056247;28;43024;-70
2023/12/20 11:28:08;;;;;;;12.80;2.70;;;;;;;;;;5063741;28;41145;-69
2023/12/20 11:30:43;;;;;;;6.82;2.53;;;;;;;;;;5060634;28;43094;-69
2023/12/20 11:33:11;;;;;;;11.25;2.70;;;;;;;;;;5060675;28;41219;-69
2023/12/20 11:35:39;;;;;;;9.73;2.30;;;;;;;;;;5063219;28;41158;-68
2023/12/20 11:38:08;;;;;;;11.90;2.78;;;;;;;;;;5066716;28;41686;-68
2023/12/20 11:40:37;;;;;;;12.07;2.92;;;;;;;;;;5062600;28;41626;-68
2023/12/20 11:43:07;;;;;;;12.75;2.92;;;;;;;;;;5062951;28;41460;-68
2023/12/20 11:45:35;;;;;;;14.10;3.33;;;;;;;;;;5062467;28;42644;-68
2023/12/20 11:48:03;;;;;;;11.82;2.97;;;;;;;;;;5064572;28;40867;-68
2023/12/20 11:50:31;;;;;;;10.55;2.85;;;;;;;;;;5059407;28;43116;-68
2023/12/20 11:53:00;;;;;;;9.88;2.83;;;;;;;;;;5060801;28;40083;-70
2023/12/20 11:55:27;;;;;;;12.13;3.20;;;;;;;;;;5064245;28;42684;-69
2023/12/20 11:57:57;;;;;;;8.93;2.28;;;;;;;;;;5058670;28;42145;-68
2023/12/20 12:00:25;;;;;;;14.45;2.70;;;;;;;;;;5041930;28;40838;-68
2023/12/20 12:02:56;;;;;;;13.18;3.03;;;;;;;;;;5062864;28;42105;-69
2023/12/20 12:05:24;;;;;;;9.93;2.75;;;;;;;;;;5063327;28;43136;-69
2023/12/20 12:07:52;;;;;;;8.40;2.78;;;;;;;;;;5060430;28;41560;-70
2023/12/20 12:10:20;;;;;;;11.20;3.10;;;;;;;;;;5050671;28;41080;-71
2023/12/20 12:12:48;;;;;;;15.80;3.70;;;;;;;;;;5067704;28;41349;-70
2023/12/20 12:15:17;;;;;;;11.95;3.30;;;;;;;;;;5063537;28;41364;-68
2023/12/20 12:17:46;;;;;;;11.00;2.92;;;;;;;;;;5066286;28;42147;-68
2023/12/20 12:20:14;;;;;;;10.77;2.50;;;;;;;;;;5061974;28;41079;-69
2023/12/20 12:22:42;;;;;;;10.13;2.10;;;;;;;;;;5063102;28;42782;-68
2023/12/20 12:25:11;;;;;;;13.93;3.05;;;;;;;;;;5058286;28;41712;-68
2023/12/20 12:27:40;;;;;;;8.57;2.95;;;;;;;;;;5064402;28;40957;-69
2023/12/20 12:30:09;;;;;;;13.95;2.45;;;;;;;;;;5061998;28;42710;-70
2023/12/20 12:32:39;;;;;;;10.20;2.60;;;;;;;;;;5059764;28;41751;-68
2023/12/20 12:35:08;;;;;;;8.98;2.22;;;;;;;;;;5064840;28;42208;-68
2023/12/20 12:37:36;;;;;;;11.32;2.28;;;;;;;;;;5059106;28;42065;-69
2023/12/20 12:40:05;;;;;;;11.85;2.22;;;;;;;;;;5062788;28;41237;-69
2023/12/20 12:42:33;;;;;;;11.73;1.98;;;;;;;;;;5062237;28;42459;-69
2023/12/20 12:45:00;;;;;;;10.07;2.22;;;;;;;;;;5037427;28;41102;-69
2023/12/20 12:47:28;;;;;;;12.85;2.70;;;;;;;;;;5055848;28;42312;-69
2023/12/20 12:49:58;;;;;;;8.60;2.60;;;;;;;;;;5055397;28;41529;-69
2023/12/20 12:52:26;;;;;;;8.95;2.35;;;;;;;;;;5060305;28;41538;-69
2023/12/20 12:54:54;;;;;;;9.10;2.17;;;;;;;;;;5062782;28;41372;-69
2023/12/20 12:57:22;;;;;;;7.50;2.13;;;;;;;;;;5060464;28;41623;-69
2023/12/20 12:59:50;;;;;;;9.20;2.50;;;;;;;;;;5052812;28;40845;-69
2023/12/20 13:02:18;;;;;;;8.07;2.47;;;;;;;;;;5061628;28;41993;-69
2023/12/20 13:04:46;;;;;;;8.55;2.55;;;;;;;;;;5063817;28;42290;-69
2023/12/20 13:07:16;;;;;;;9.45;2.20;;;;;;;;;;5061385;28;41566;-69
2023/12/20 13:09:44;;;;;;;8.48;2.42;;;;;;;;;;5057734;28;41158;-69
2023/12/20 13:12:12;;;;;;;10.35;2.20;;;;;;;;;;5061955;28;42581;-69
2023/12/20 13:14:40;;;;;;;7.72;2.20;;;;;;;;;;5064333;28;40944;-69
2023/12/20 13:17:08;;;;;;;10.23;2.28;;;;;;;;;;5053237;28;42811;-71
2023/12/20 13:19:36;;;;;;;7.53;2.10;;;;;;;;;;5058653;28;42301;-70
2023/12/20 13:22:04;;;;;;;10.13;2.75;;;;;;;;;;5055374;28;42376;-70
2023/12/20 13:24:34;;;;;;;7.75;2.13;;;;;;;;;;5057702;28;42357;-69
2023/12/20 13:27:02;;;;;;;8.07;2.20;;;;;;;;;;5056632;28;41866;-68
2023/12/20 13:29:30;;;;;;;11.02;2.50;;;;;;;;;;5062247;28;42884;-72
2023/12/20 13:31:58;;;;;;;11.82;2.10;;;;;;;;;;5055509;28;42107;-69
2023/12/20 13:34:26;;;;;;;8.50;2.13;;;;;;;;;;5051024;28;41007;-68
2023/12/20 13:36:54;;;;;;;8.52;2.33;;;;;;;;;;5064459;28;41370;-68
2023/12/20 13:39:22;;;;;;;10.05;2.38;;;;;;;;;;5062913;28;41253;-69
2023/12/20 13:41:52;;;;;;;14.15;2.50;;;;;;;;;;5066642;28;41449;-68
2023/12/20 13:44:20;;;;;;;6.85;1.98;;;;;;;;;;5062664;28;41724;-69
2023/12/20 13:46:49;;;;;;;6.32;2.10;;;;;;;;;;5058100;28;41035;-69
2023/12/20 13:49:17;;;;;;;10.43;2.05;;;;;;;;;;5053605;28;41019;-69
2023/12/20 13:51:46;;;;;;;9.15;2.28;;;;;;;;;;5061517;28;41710;-68
2023/12/20 13:54:16;;;;;;;6.85;2.38;;;;;;;;;;5053057;28;40865;-72
2023/12/20 13:56:44;;;;;;;9.05;2.13;;;;;;;;;;5045643;28;41470;-69
2023/12/20 13:59:34;;;;;;;9.98;2.53;;;;;;;;;;5058055;28;43986;-68
2023/12/20 14:02:03;;;;;;;8.60;2.25;;;;;;;;;;5059844;28;42397;-67
2023/12/20 14:04:31;;;;;;;9.57;2.13;;;;;;;;;;5059039;28;41655;-67
2023/12/20 14:07:10;;;;;;;10.75;1.70;;;;;;;;;;5060724;28;41526;-67
2023/12/20 14:09:44;;;;;;;7.30;2.03;;;;;;;;;;5055686;28;43071;-67
2023/12/20 14:12:13;;;;;;;12.65;2.53;;;;;;;;;;5057644;28;41884;-67
2023/12/20 14:14:44;;;;;;;6.43;1.73;;;;;;;;;;5058381;28;41062;-67
2023/12/20 14:17:12;;;;;;;6.53;1.60;;;;;;;;;;5062660;28;42868;-68
2023/12/20 14:19:40;;;;;;;7.15;2.25;;;;;;;;;;5057954;28;42015;-69
2023/12/20 14:22:08;;;;;;;7.25;2.05;;;;;;;;;;5063212;28;41926;-68
2023/12/20 14:24:37;;;;;;;9.50;2.03;;;;;;;;;;5058891;28;41984;-69
2023/12/20 14:27:05;;;;;;;5.90;1.70;;;;;;;;;;5060430;28;41917;-70
2023/12/20 14:29:33;;;;;;;6.43;2.17;;;;;;;;;;5063707;28;42687;-69
2023/12/20 14:32:03;;;;;;;5.78;1.83;;;;;;;;;;5059699;28;42059;-69
2023/12/20 14:34:31;;;;;;;7.22;2.17;;;;;;;;;;5060315;28;42034;-69
2023/12/20 14:36:59;;;;;;;8.38;2.15;;;;;;;;;;5059865;28;41535;-69
2023/12/20 14:39:27;;;;;;;4.53;1.48;;;;;;;;;;5066827;28;42775;-68
2023/12/20 14:41:55;;;;;;;6.88;2.03;;;;;;;;;;5063891;28;41007;-69
2023/12/20 14:44:23;;;;;;;5.88;2.15;;;;;;;;;;5064910;28;41354;-68
2023/12/20 14:46:51;;;;;;;5.68;1.80;;;;;;;;;;5063344;28;40971;-68
2023/12/20 14:49:20;;;;;;;8.25;1.98;;;;;;;;;;5061749;28;43308;-69